sensor_id;sensor_type;location;lat;lon;timestamp;pressure;altitude;pressure_sealevel;temperature;humidity
42725;BME280;28369;44.046;23.014;2022-08-21T00:00:55;100067.97;;;26.19;80.59
42725;BME280;28369;44.046;23.014;2022-08-21T00:03:20;100093.38;;;26.06;80.67
42725;BME280;28369;44.046;23.014;2022-08-21T00:05:49;100348.66;;;27.86;79.58
42725;BME280;28369;44.046;23.014;2022-08-21T00:08:16;100042.94;;;26.01;79.87
42725;BME280;28369;44.046;23.014;2022-08-21T00:10:43;100103.88;;;26.42;79.99
42725;BME280;28369;44.046;23.014;2022-08-21T00:13:10;100318.00;;;27.97;79.90
42725;BME280;28369;44.046;23.014;2022-08-21T00:15:37;100276.50;;;27.59;80.13
42725;BME280;28369;44.046;23.014;2022-08-21T00:18:04;100172.47;;;27.07;80.66
42725;BME280;28369;44.046;23.014;2022-08-21T00:20:31;100217.75;;;27.44;79.30
42725;BME280;28369;44.046;23.014;2022-08-21T00:22:57;100284.06;;;28.01;79.23
42725;BME280;28369;44.046;23.014;2022-08-21T00:25:22;100133.88;;;26.84;78.78
42725;BME280;28369;44.046;23.014;2022-08-21T00:27:48;100284.50;;;27.71;79.21
42725;BME280;28369;44.046;23.014;2022-08-21T00:30:17;100055.25;;;26.31;79.10
42725;BME280;28369;44.046;23.014;2022-08-21T00:32:43;100457.09;;;28.78;79.19
42725;BME280;28369;44.046;23.014;2022-08-21T00:35:13;100164.75;;;27.16;78.56
42725;BME280;28369;44.046;23.014;2022-08-21T00:37:40;100203.91;;;27.18;79.48
42725;BME280;28369;44.046;23.014;2022-08-21T00:40:10;100036.25;;;26.21;80.29
42725;BME280;28369;44.046;23.014;2022-08-21T00:42:36;100417.41;;;28.61;80.72
42725;BME280;28369;44.046;23.014;2022-08-21T00:45:03;100259.44;;;27.75;80.19
42725;BME280;28369;44.046;23.014;2022-08-21T00:47:29;100030.34;;;26.24;79.14
42725;BME280;28369;44.046;23.014;2022-08-21T00:49:55;100129.91;;;26.70;79.71
42725;BME280;28369;44.046;23.014;2022-08-21T00:52:25;100096.91;;;26.80;79.39
42725;BME280;28369;44.046;23.014;2022-08-21T00:54:52;100143.50;;;27.19;78.65
42725;BME280;28369;44.046;23.014;2022-08-21T00:57:24;100050.13;;;26.91;76.77
42725;BME280;28369;44.046;23.014;2022-08-21T00:59:53;100300.53;;;28.27;77.85
42725;BME280;28369;44.046;23.014;2022-08-21T01:02:21;100183.16;;;27.63;77.69
42725;BME280;28369;44.046;23.014;2022-08-21T01:04:47;100104.97;;;27.24;77.15
42725;BME280;28369;44.046;23.014;2022-08-21T01:07:13;100136.22;;;27.69;77.08
42725;BME280;28369;44.046;23.014;2022-08-21T01:09:39;100224.69;;;28.39;76.28
42725;BME280;28369;44.046;23.014;2022-08-21T01:12:06;100349.06;;;28.99;77.33
42725;BME280;28369;44.046;23.014;2022-08-21T01:14:32;99989.91;;;26.63;76.90
42725;BME280;28369;44.046;23.014;2022-08-21T01:16:58;100112.63;;;27.32;78.95
42725;BME280;28369;44.046;23.014;2022-08-21T01:19:25;100136.53;;;27.46;78.37
42725;BME280;28369;44.046;23.014;2022-08-21T01:21:51;99994.38;;;26.52;77.81
42725;BME280;28369;44.046;23.014;2022-08-21T01:24:17;99990.53;;;26.48;76.94
42725;BME280;28369;44.046;23.014;2022-08-21T01:26:43;99984.75;;;26.62;77.16
42725;BME280;28369;44.046;23.014;2022-08-21T01:31:53;100238.31;;;28.22;76.68
42725;BME280;28369;44.046;23.014;2022-08-21T01:34:18;100365.66;;;28.80;78.21
42725;BME280;28369;44.046;23.014;2022-08-21T01:36:45;100211.44;;;27.83;78.20
42725;BME280;28369;44.046;23.014;2022-08-21T01:39:11;99946.34;;;26.27;76.88
42725;BME280;28369;44.046;23.014;2022-08-21T01:41:37;100363.66;;;28.98;77.38
42725;BME280;28369;44.046;23.014;2022-08-21T01:44:03;100241.19;;;27.88;78.05
42725;BME280;28369;44.046;23.014;2022-08-21T01:46:29;100065.34;;;26.80;78.30
42725;BME280;28369;44.046;23.014;2022-08-21T01:48:54;100239.16;;;27.51;80.40
42725;BME280;28369;44.046;23.014;2022-08-21T01:51:20;99995.72;;;26.33;78.99
42725;BME280;28369;44.046;23.014;2022-08-21T01:53:45;99991.09;;;25.94;80.33
42725;BME280;28369;44.046;23.014;2022-08-21T01:56:14;100168.22;;;27.11;79.86
42725;BME280;28369;44.046;23.014;2022-08-21T01:58:42;99962.16;;;25.84;79.50
42725;BME280;28369;44.046;23.014;2022-08-21T02:01:10;99978.88;;;26.03;80.32
42725;BME280;28369;44.046;23.014;2022-08-21T02:03:36;100275.94;;;27.79;80.86
42725;BME280;28369;44.046;23.014;2022-08-21T02:06:04;100015.22;;;26.40;79.27
42725;BME280;28369;44.046;23.014;2022-08-21T02:08:30;100219.63;;;27.44;80.95
42725;BME280;28369;44.046;23.014;2022-08-21T02:10:56;100251.16;;;27.60;81.20
42725;BME280;28369;44.046;23.014;2022-08-21T02:13:22;100034.31;;;26.38;80.22
42725;BME280;28369;44.046;23.014;2022-08-21T02:15:47;100301.22;;;27.95;80.22
42725;BME280;28369;44.046;23.014;2022-08-21T02:18:13;100229.56;;;27.60;79.94
42725;BME280;28369;44.046;23.014;2022-08-21T02:20:42;100273.44;;;27.72;80.54
42725;BME280;28369;44.046;23.014;2022-08-21T02:23:10;100042.28;;;26.28;80.00
42725;BME280;28369;44.046;23.014;2022-08-21T02:25:36;100205.66;;;27.47;78.29
42725;BME280;28369;44.046;23.014;2022-08-21T02:28:04;100190.13;;;27.59;77.14
42725;BME280;28369;44.046;23.014;2022-08-21T02:30:34;100265.78;;;28.14;76.96
42725;BME280;28369;44.046;23.014;2022-08-21T02:33:01;100256.69;;;27.98;77.07
42725;BME280;28369;44.046;23.014;2022-08-21T02:35:27;100002.53;;;26.41;77.25
42725;BME280;28369;44.046;23.014;2022-08-21T02:37:55;100121.47;;;27.05;77.17
42725;BME280;28369;44.046;23.014;2022-08-21T02:40:25;99980.59;;;26.10;76.82
42725;BME280;28369;44.046;23.014;2022-08-21T02:42:52;100191.03;;;27.42;77.20
42725;BME280;28369;44.046;23.014;2022-08-21T02:45:18;100160.81;;;27.23;76.95
42725;BME280;28369;44.046;23.014;2022-08-21T02:47:49;100157.00;;;27.19;76.82
42725;BME280;28369;44.046;23.014;2022-08-21T02:50:18;100192.44;;;27.28;76.64
42725;BME280;28369;44.046;23.014;2022-08-21T02:52:45;100139.03;;;26.86;77.19
42725;BME280;28369;44.046;23.014;2022-08-21T02:55:10;100253.41;;;27.68;76.05
42725;BME280;28369;44.046;23.014;2022-08-21T02:57:36;99955.97;;;25.84;77.13
42725;BME280;28369;44.046;23.014;2022-08-21T03:00:04;100075.50;;;26.73;77.14
42725;BME280;28369;44.046;23.014;2022-08-21T03:02:30;100238.41;;;28.00;76.96
42725;BME280;28369;44.046;23.014;2022-08-21T03:04:56;99994.63;;;26.51;76.10
42725;BME280;28369;44.046;23.014;2022-08-21T03:07:21;100010.41;;;26.64;75.38
42725;BME280;28369;44.046;23.014;2022-08-21T03:09:47;100139.34;;;27.56;74.65
42725;BME280;28369;44.046;23.014;2022-08-21T03:12:13;100208.16;;;28.03;76.69
42725;BME280;28369;44.046;23.014;2022-08-21T03:14:38;100147.34;;;27.46;76.77
42725;BME280;28369;44.046;23.014;2022-08-21T03:17:05;100223.31;;;28.04;75.99
42725;BME280;28369;44.046;23.014;2022-08-21T03:19:30;100240.47;;;27.98;76.38
42725;BME280;28369;44.046;23.014;2022-08-21T03:21:56;100091.25;;;27.03;75.78
42725;BME280;28369;44.046;23.014;2022-08-21T03:24:21;100378.69;;;28.83;75.84
42725;BME280;28369;44.046;23.014;2022-08-21T03:26:47;100060.44;;;26.99;76.90
42725;BME280;28369;44.046;23.014;2022-08-21T03:29:13;100213.47;;;28.20;75.16
42725;BME280;28369;44.046;23.014;2022-08-21T03:31:38;99989.38;;;26.66;75.35
42725;BME280;28369;44.046;23.014;2022-08-21T03:34:04;100256.53;;;28.04;76.40
42725;BME280;28369;44.046;23.014;2022-08-21T03:36:30;100127.94;;;27.49;75.57
42725;BME280;28369;44.046;23.014;2022-08-21T03:38:55;99962.13;;;26.18;76.51
42725;BME280;28369;44.046;23.014;2022-08-21T03:41:21;100096.38;;;27.05;76.40
42725;BME280;28369;44.046;23.014;2022-08-21T03:43:47;100068.16;;;26.90;76.23
42725;BME280;28369;44.046;23.014;2022-08-21T03:46:13;100114.03;;;27.13;76.83
42725;BME280;28369;44.046;23.014;2022-08-21T03:48:39;100144.13;;;27.27;76.19
42725;BME280;28369;44.046;23.014;2022-08-21T03:51:06;99978.34;;;26.24;76.38
42725;BME280;28369;44.046;23.014;2022-08-21T03:53:32;100381.91;;;28.80;76.13
42725;BME280;28369;44.046;23.014;2022-08-21T03:55:58;100254.09;;;28.03;75.78
42725;BME280;28369;44.046;23.014;2022-08-21T03:58:27;100151.69;;;27.47;76.12
42725;BME280;28369;44.046;23.014;2022-08-21T04:00:55;100242.72;;;28.01;76.85
42725;BME280;28369;44.046;23.014;2022-08-21T04:03:22;100097.75;;;27.07;77.00
42725;BME280;28369;44.046;23.014;2022-08-21T04:05:48;100249.53;;;27.86;76.76
42725;BME280;28369;44.046;23.014;2022-08-21T04:08:15;100228.53;;;27.66;76.63
42725;BME280;28369;44.046;23.014;2022-08-21T04:10:45;100245.69;;;27.77;77.38
42725;BME280;28369;44.046;23.014;2022-08-21T04:13:11;100230.88;;;27.57;77.31
42725;BME280;28369;44.046;23.014;2022-08-21T04:15:38;100057.78;;;26.60;76.85
42725;BME280;28369;44.046;23.014;2022-08-21T04:18:04;100153.34;;;27.08;76.72
42725;BME280;28369;44.046;23.014;2022-08-21T04:20:30;99943.38;;;25.90;76.50
42725;BME280;28369;44.046;23.014;2022-08-21T04:22:56;100251.34;;;27.75;76.58
42725;BME280;28369;44.046;23.014;2022-08-21T04:25:22;100006.75;;;26.31;76.00
42725;BME280;28369;44.046;23.014;2022-08-21T04:27:48;100144.88;;;27.00;76.17
42725;BME280;28369;44.046;23.014;2022-08-21T04:30:15;100143.38;;;27.09;75.77
42725;BME280;28369;44.046;23.014;2022-08-21T04:32:49;100179.91;;;27.39;74.94
42725;BME280;28369;44.046;23.014;2022-08-21T04:35:20;100071.00;;;26.62;75.40
42725;BME280;28369;44.046;23.014;2022-08-21T04:37:46;100377.09;;;28.60;75.39
42725;BME280;28369;44.046;23.014;2022-08-21T04:40:13;100158.25;;;27.12;75.59
42725;BME280;28369;44.046;23.014;2022-08-21T04:42:57;99964.28;;;25.82;75.54
42725;BME280;28369;44.046;23.014;2022-08-21T04:45:28;100174.13;;;27.08;74.52
42725;BME280;28369;44.046;23.014;2022-08-21T04:47:56;100138.84;;;26.93;74.57
42725;BME280;28369;44.046;23.014;2022-08-21T04:50:31;100024.25;;;26.12;73.29
42725;BME280;28369;44.046;23.014;2022-08-21T04:53:00;99976.09;;;25.98;72.56
42725;BME280;28369;44.046;23.014;2022-08-21T04:55:25;100166.31;;;27.12;73.35
42725;BME280;28369;44.046;23.014;2022-08-21T04:58:21;100382.34;;;28.44;73.26
42725;BME280;28369;44.046;23.014;2022-08-21T05:00:48;100383.91;;;28.40;74.00
42725;BME280;28369;44.046;23.014;2022-08-21T05:03:17;100383.38;;;28.43;74.21
42725;BME280;28369;44.046;23.014;2022-08-21T05:05:43;99987.13;;;25.97;73.84
42725;BME280;28369;44.046;23.014;2022-08-21T05:08:12;100028.41;;;26.19;71.60
42725;BME280;28369;44.046;23.014;2022-08-21T05:10:39;100394.13;;;28.60;71.32
42725;BME280;28369;44.046;23.014;2022-08-21T05:13:06;100176.69;;;27.20;71.22
42725;BME280;28369;44.046;23.014;2022-08-21T05:15:32;100106.13;;;26.84;71.11
42725;BME280;28369;44.046;23.014;2022-08-21T05:17:57;100173.97;;;27.37;70.72
42725;BME280;28369;44.046;23.014;2022-08-21T05:20:23;100406.19;;;28.75;70.60
42725;BME280;28369;44.046;23.014;2022-08-21T05:22:49;100079.19;;;26.89;69.00
42725;BME280;28369;44.046;23.014;2022-08-21T05:25:15;100016.84;;;26.41;69.85
42725;BME280;28369;44.046;23.014;2022-08-21T05:27:41;100107.25;;;27.10;68.46
42725;BME280;28369;44.046;23.014;2022-08-21T05:30:08;100069.03;;;26.96;68.65
42725;BME280;28369;44.046;23.014;2022-08-21T05:32:35;100256.16;;;28.50;67.22
42725;BME280;28369;44.046;23.014;2022-08-21T05:35:02;100281.50;;;28.71;66.98
42725;BME280;28369;44.046;23.014;2022-08-21T05:37:28;100095.44;;;27.66;67.01
42725;BME280;28369;44.046;23.014;2022-08-21T05:39:53;100398.78;;;30.15;66.09
42725;BME280;28369;44.046;23.014;2022-08-21T05:42:19;100421.97;;;29.16;66.94
42725;BME280;28369;44.046;23.014;2022-08-21T05:44:45;100165.13;;;27.96;65.48
42725;BME280;28369;44.046;23.014;2022-08-21T05:47:11;100119.19;;;27.96;63.92
42725;BME280;28369;44.046;23.014;2022-08-21T05:49:37;100045.50;;;28.38;61.26
42725;BME280;28369;44.046;23.014;2022-08-21T05:52:03;100396.09;;;30.15;61.88
42725;BME280;28369;44.046;23.014;2022-08-21T05:54:29;100205.19;;;28.32;62.53
42725;BME280;28369;44.046;23.014;2022-08-21T05:56:54;99983.13;;;26.38;65.56
42725;BME280;28369;44.046;23.014;2022-08-21T05:59:21;100090.53;;;27.13;62.70
42725;BME280;28369;44.046;23.014;2022-08-21T06:01:46;99989.38;;;26.66;65.88
42725;BME280;28369;44.046;23.014;2022-08-21T06:04:12;99976.25;;;26.09;68.13
42725;BME280;28369;44.046;23.014;2022-08-21T06:06:37;100153.72;;;26.95;71.13
42725;BME280;28369;44.046;23.014;2022-08-21T06:09:04;100258.88;;;27.51;71.25
42725;BME280;28369;44.046;23.014;2022-08-21T06:11:30;100004.56;;;25.60;71.49
42725;BME280;28369;44.046;23.014;2022-08-21T06:13:57;100258.25;;;26.88;71.85
42725;BME280;28369;44.046;23.014;2022-08-21T06:16:23;100140.84;;;26.29;70.64
42725;BME280;28369;44.046;23.014;2022-08-21T06:18:49;100300.06;;;27.86;71.81
42725;BME280;28369;44.046;23.014;2022-08-21T06:21:15;100120.06;;;26.81;70.92
42725;BME280;28369;44.046;23.014;2022-08-21T06:23:42;100150.91;;;27.79;68.76
42725;BME280;28369;44.046;23.014;2022-08-21T06:26:08;100113.31;;;26.61;68.55
42725;BME280;28369;44.046;23.014;2022-08-21T06:28:35;99968.00;;;25.98;70.15
42725;BME280;28369;44.046;23.014;2022-08-21T06:31:13;100271.06;;;28.25;68.08
42725;BME280;28369;44.046;23.014;2022-08-21T06:33:39;100414.25;;;28.97;68.08
42725;BME280;28369;44.046;23.014;2022-08-21T06:36:04;100395.81;;;29.26;68.26
42725;BME280;28369;44.046;23.014;2022-08-21T06:38:30;100387.09;;;29.57;66.31
42725;BME280;28369;44.046;23.014;2022-08-21T06:40:55;100071.09;;;28.25;61.98
42725;BME280;28369;44.046;23.014;2022-08-21T06:43:21;100418.88;;;30.25;62.27
42725;BME280;28369;44.046;23.014;2022-08-21T06:45:46;100282.75;;;29.39;61.52
42725;BME280;28369;44.046;23.014;2022-08-21T06:48:12;100031.84;;;28.13;61.48
42725;BME280;28369;44.046;23.014;2022-08-21T06:50:38;100018.19;;;28.35;60.66
42725;BME280;28369;44.046;23.014;2022-08-21T06:53:09;100286.88;;;30.41;58.08
42725;BME280;28369;44.046;23.014;2022-08-21T06:55:35;100232.38;;;30.22;57.60
42725;BME280;28369;44.046;23.014;2022-08-21T06:58:02;100293.44;;;30.50;57.88
42725;BME280;28369;44.046;23.014;2022-08-21T07:00:28;100231.81;;;30.35;57.36
42725;BME280;28369;44.046;23.014;2022-08-21T07:02:53;100310.78;;;30.85;57.85
42725;BME280;28369;44.046;23.014;2022-08-21T07:05:19;100293.84;;;29.95;56.33
42725;BME280;28369;44.046;23.014;2022-08-21T07:07:45;100070.44;;;27.81;59.89
42725;BME280;28369;44.046;23.014;2022-08-21T07:10:11;100060.03;;;28.27;58.74
42725;BME280;28369;44.046;23.014;2022-08-21T07:12:37;100295.03;;;28.76;62.42
42725;BME280;28369;44.046;23.014;2022-08-21T07:15:03;100430.41;;;29.94;62.07
42725;BME280;28369;44.046;23.014;2022-08-21T07:17:28;100029.72;;;27.00;63.75
42725;BME280;28369;44.046;23.014;2022-08-21T07:19:54;100248.22;;;29.08;62.23
42725;BME280;28369;44.046;23.014;2022-08-21T07:22:20;100287.38;;;30.22;59.56
42725;BME280;28369;44.046;23.014;2022-08-21T07:24:46;100180.59;;;29.19;58.29
42725;BME280;28369;44.046;23.014;2022-08-21T07:27:12;100268.56;;;29.79;57.12
42725;BME280;28369;44.046;23.014;2022-08-21T07:29:38;100078.84;;;29.18;54.68
42725;BME280;28369;44.046;23.014;2022-08-21T07:32:04;100232.69;;;30.56;56.64
42725;BME280;28369;44.046;23.014;2022-08-21T07:34:30;100425.31;;;32.35;54.72
42725;BME280;28369;44.046;23.014;2022-08-21T07:36:57;100296.22;;;31.77;52.87
42725;BME280;28369;44.046;23.014;2022-08-21T07:39:22;100137.91;;;31.06;51.00
42725;BME280;28369;44.046;23.014;2022-08-21T07:41:48;100170.34;;;31.37;49.34
42725;BME280;28369;44.046;23.014;2022-08-21T07:44:13;100292.44;;;32.23;50.38
42725;BME280;28369;44.046;23.014;2022-08-21T07:46:39;100295.25;;;32.02;49.70
42725;BME280;28369;44.046;23.014;2022-08-21T07:49:04;100191.22;;;31.42;49.69
42725;BME280;28369;44.046;23.014;2022-08-21T07:51:30;100062.75;;;30.00;50.34
42725;BME280;28369;44.046;23.014;2022-08-21T07:53:57;100118.25;;;30.23;51.78
42725;BME280;28369;44.046;23.014;2022-08-21T07:56:24;100209.00;;;31.74;54.10
42725;BME280;28369;44.046;23.014;2022-08-21T07:58:49;100066.75;;;31.19;51.22
42725;BME280;28369;44.046;23.014;2022-08-21T08:01:15;100415.53;;;32.39;50.41
42725;BME280;28369;44.046;23.014;2022-08-21T08:03:41;100181.47;;;29.24;55.20
42725;BME280;28369;44.046;23.014;2022-08-21T08:06:07;100259.84;;;29.57;56.03
42725;BME280;28369;44.046;23.014;2022-08-21T08:08:39;100000.75;;;27.72;55.74
42725;BME280;28369;44.046;23.014;2022-08-21T08:11:05;100125.84;;;28.53;55.00
42725;BME280;28369;44.046;23.014;2022-08-21T08:13:31;100171.66;;;30.28;53.36
42725;BME280;28369;44.046;23.014;2022-08-21T08:15:57;100296.56;;;31.60;51.72
42725;BME280;28369;44.046;23.014;2022-08-21T08:18:23;100170.72;;;31.15;49.34
42725;BME280;28369;44.046;23.014;2022-08-21T08:20:48;100414.97;;;32.87;49.76
42725;BME280;28369;44.046;23.014;2022-08-21T08:23:14;100026.38;;;30.22;50.46
42725;BME280;28369;44.046;23.014;2022-08-21T08:25:40;100289.25;;;32.05;48.60
42725;BME280;28369;44.046;23.014;2022-08-21T08:28:07;100384.91;;;32.08;50.45
42725;BME280;28369;44.046;23.014;2022-08-21T08:30:33;100122.19;;;30.93;49.56
42725;BME280;28369;44.046;23.014;2022-08-21T08:32:59;100191.69;;;31.64;49.62
42725;BME280;28369;44.046;23.014;2022-08-21T08:35:25;100110.13;;;31.25;49.07
42725;BME280;28369;44.046;23.014;2022-08-21T08:37:51;100074.84;;;31.25;48.09
42725;BME280;28369;44.046;23.014;2022-08-21T08:40:28;100197.91;;;31.70;49.56
42725;BME280;28369;44.046;23.014;2022-08-21T08:42:57;100069.91;;;30.66;50.55
42725;BME280;28369;44.046;23.014;2022-08-21T08:45:23;100000.97;;;29.40;49.89
42725;BME280;28369;44.046;23.014;2022-08-21T08:47:54;100191.72;;;30.58;49.60
42725;BME280;28369;44.046;23.014;2022-08-21T08:50:40;100396.63;;;32.13;49.41
42725;BME280;28369;44.046;23.014;2022-08-21T08:53:30;100183.88;;;30.46;49.78
42725;BME280;28369;44.046;23.014;2022-08-21T08:55:57;100060.56;;;29.81;49.12
42725;BME280;28369;44.046;23.014;2022-08-21T08:58:26;100141.72;;;30.95;50.17
42725;BME280;28369;44.046;23.014;2022-08-21T09:00:54;100155.31;;;30.79;49.67
42725;BME280;28369;44.046;23.014;2022-08-21T09:03:22;100065.47;;;30.96;47.51
42725;BME280;28369;44.046;23.014;2022-08-21T09:08:59;100002.91;;;30.77;47.30
42725;BME280;28369;44.046;23.014;2022-08-21T09:14:17;100364.38;;;33.69;44.51
42725;BME280;28369;44.046;23.014;2022-08-21T09:17:02;100367.22;;;33.83;46.13
42725;BME280;28369;44.046;23.014;2022-08-21T09:22:24;99976.56;;;30.78;46.86
42725;BME280;28369;44.046;23.014;2022-08-21T09:25:12;100070.94;;;32.10;44.93
42725;BME280;28369;44.046;23.014;2022-08-21T09:27:41;100268.53;;;33.13;46.18
42725;BME280;28369;44.046;23.014;2022-08-21T09:30:07;100235.25;;;33.46;44.22
42725;BME280;28369;44.046;23.014;2022-08-21T09:32:35;100128.94;;;33.07;43.29
42725;BME280;28369;44.046;23.014;2022-08-21T09:35:14;100350.38;;;34.00;43.69
42725;BME280;28369;44.046;23.014;2022-08-21T09:37:57;100343.66;;;34.11;46.16
42725;BME280;28369;44.046;23.014;2022-08-21T09:40:43;100198.19;;;33.26;44.83
42725;BME280;28369;44.046;23.014;2022-08-21T09:43:18;100320.50;;;33.89;45.39
42725;BME280;28369;44.046;23.014;2022-08-21T09:45:47;99974.69;;;30.78;46.19
42725;BME280;28369;44.046;23.014;2022-08-21T09:48:14;100343.00;;;34.19;45.63
42725;BME280;28369;44.046;23.014;2022-08-21T09:50:42;100080.72;;;32.41;43.41
42725;BME280;28369;44.046;23.014;2022-08-21T09:53:21;100132.06;;;32.47;45.40
42725;BME280;28369;44.046;23.014;2022-08-21T09:55:54;100334.31;;;33.98;44.88
42725;BME280;28369;44.046;23.014;2022-08-21T09:58:42;100240.06;;;33.30;44.04
42725;BME280;28369;44.046;23.014;2022-08-21T10:01:15;99999.91;;;31.93;43.11
42725;BME280;28369;44.046;23.014;2022-08-21T10:03:42;100192.66;;;33.31;43.83
42725;BME280;28369;44.046;23.014;2022-08-21T10:06:09;100097.94;;;32.84;43.21
42725;BME280;28369;44.046;23.014;2022-08-21T10:08:40;100112.34;;;33.28;43.85
42725;BME280;28369;44.046;23.014;2022-08-21T10:11:10;99986.72;;;32.34;41.78
42725;BME280;28369;44.046;23.014;2022-08-21T10:16:41;100188.03;;;33.31;43.52
42725;BME280;28369;44.046;23.014;2022-08-21T10:22:21;100314.00;;;34.81;43.86
42725;BME280;28369;44.046;23.014;2022-08-21T10:27:40;100315.34;;;35.11;42.07
42725;BME280;28369;44.046;23.014;2022-08-21T10:30:14;100084.81;;;34.01;42.53
42725;BME280;28369;44.046;23.014;2022-08-21T10:35:26;100315.66;;;35.09;41.61
42725;BME280;28369;44.046;23.014;2022-08-21T10:40:55;100320.63;;;35.07;40.23
42725;BME280;28369;44.046;23.014;2022-08-21T10:43:42;100313.25;;;35.22;40.32
42725;BME280;28369;44.046;23.014;2022-08-21T10:49:29;100283.91;;;34.86;39.37
42725;BME280;28369;44.046;23.014;2022-08-21T10:55:08;100170.03;;;35.14;39.37
42725;BME280;28369;44.046;23.014;2022-08-21T10:57:58;100292.41;;;36.18;38.92
42725;BME280;28369;44.046;23.014;2022-08-21T11:00:30;100268.66;;;36.27;38.97
42725;BME280;28369;44.046;23.014;2022-08-21T11:03:19;100174.81;;;35.59;38.28
42725;BME280;28369;44.046;23.014;2022-08-21T11:05:52;100295.50;;;36.03;38.66
42725;BME280;28369;44.046;23.014;2022-08-21T11:08:38;100266.59;;;35.18;39.21
42725;BME280;28369;44.046;23.014;2022-08-21T11:11:57;100218.19;;;35.10;38.72
42725;BME280;28369;44.046;23.014;2022-08-21T11:17:12;100232.75;;;35.47;40.29
42725;BME280;28369;44.046;23.014;2022-08-21T11:19:59;100254.00;;;35.50;38.96
42725;BME280;28369;44.046;23.014;2022-08-21T11:22:50;100112.50;;;34.69;38.21
42725;BME280;28369;44.046;23.014;2022-08-21T11:25:26;100206.31;;;35.42;37.83
42725;BME280;28369;44.046;23.014;2022-08-21T11:27:59;100216.44;;;35.42;39.48
42725;BME280;28369;44.046;23.014;2022-08-21T11:30:34;100062.66;;;34.21;38.61
42725;BME280;28369;44.046;23.014;2022-08-21T11:33:26;100246.19;;;35.29;38.29
42725;BME280;28369;44.046;23.014;2022-08-21T11:36:00;100239.94;;;35.43;38.60
42725;BME280;28369;44.046;23.014;2022-08-21T11:41:29;99925.63;;;33.55;39.81
42725;BME280;28369;44.046;23.014;2022-08-21T11:44:09;100234.34;;;35.48;38.62
42725;BME280;28369;44.046;23.014;2022-08-21T11:49:39;100248.56;;;35.73;38.92
42725;BME280;28369;44.046;23.014;2022-08-21T11:52:34;100110.59;;;34.97;38.68
42725;BME280;28369;44.046;23.014;2022-08-21T11:55:11;100240.69;;;35.71;37.75
42725;BME280;28369;44.046;23.014;2022-08-21T11:57:47;100262.03;;;35.83;38.68
42725;BME280;28369;44.046;23.014;2022-08-21T12:00:24;100247.97;;;35.76;38.13
42725;BME280;28369;44.046;23.014;2022-08-21T12:02:56;100022.66;;;33.70;38.83
42725;BME280;28369;44.046;23.014;2022-08-21T12:05:34;99900.06;;;33.04;38.00
42725;BME280;28369;44.046;23.014;2022-08-21T12:08:32;100248.53;;;35.50;38.70
42725;BME280;28369;44.046;23.014;2022-08-21T12:11:08;100246.34;;;35.61;37.38
42725;BME280;28369;44.046;23.014;2022-08-21T12:13:39;100123.28;;;35.29;36.77
42725;BME280;28369;44.046;23.014;2022-08-21T12:16:07;100007.81;;;32.67;39.08
42725;BME280;28369;44.046;23.014;2022-08-21T12:18:33;100009.25;;;32.35;39.67
42725;BME280;28369;44.046;23.014;2022-08-21T12:23:33;99982.41;;;32.04;39.30
42725;BME280;28369;44.046;23.014;2022-08-21T12:26:22;100272.34;;;33.61;40.92
42725;BME280;28369;44.046;23.014;2022-08-21T12:28:48;100258.81;;;33.55;41.05
42725;BME280;28369;44.046;23.014;2022-08-21T12:31:22;100046.72;;;31.84;40.46
42725;BME280;28369;44.046;23.014;2022-08-21T12:33:56;100032.03;;;30.51;42.18
42725;BME280;28369;44.046;23.014;2022-08-21T12:36:29;100078.13;;;30.30;42.96
42725;BME280;28369;44.046;23.014;2022-08-21T12:39:03;100256.59;;;32.16;41.66
42725;BME280;28369;44.046;23.014;2022-08-21T12:41:37;100114.78;;;31.19;41.74
42725;BME280;28369;44.046;23.014;2022-08-21T12:44:21;100017.06;;;30.64;40.96
42725;BME280;28369;44.046;23.014;2022-08-21T12:46:59;100254.22;;;32.04;40.77
42725;BME280;28369;44.046;23.014;2022-08-21T12:49:43;100194.31;;;32.19;40.17
42725;BME280;28369;44.046;23.014;2022-08-21T12:52:31;100243.06;;;33.04;39.34
42725;BME280;28369;44.046;23.014;2022-08-21T12:54:57;100219.38;;;32.75;39.36
42725;BME280;28369;44.046;23.014;2022-08-21T12:57:25;100197.22;;;32.58;40.05
42725;BME280;28369;44.046;23.014;2022-08-21T13:00:01;99959.34;;;31.43;38.77
42725;BME280;28369;44.046;23.014;2022-08-21T13:02:35;100228.84;;;33.74;39.30
42725;BME280;28369;44.046;23.014;2022-08-21T13:05:06;100086.56;;;32.53;38.98
42725;BME280;28369;44.046;23.014;2022-08-21T13:07:35;100157.53;;;33.29;38.94
42725;BME280;28369;44.046;23.014;2022-08-21T13:10:25;99887.81;;;30.83;41.06
42725;BME280;28369;44.046;23.014;2022-08-21T13:12:55;100027.03;;;31.68;41.83
42725;BME280;28369;44.046;23.014;2022-08-21T13:15:26;100196.53;;;32.47;42.27
42725;BME280;28369;44.046;23.014;2022-08-21T13:17:52;99826.03;;;29.75;42.86
42725;BME280;28369;44.046;23.014;2022-08-21T13:20:27;99982.97;;;30.47;43.84
42725;BME280;28369;44.046;23.014;2022-08-21T13:22:53;99875.09;;;29.43;44.45
42725;BME280;28369;44.046;23.014;2022-08-21T13:25:21;100011.47;;;30.19;43.73
42725;BME280;28369;44.046;23.014;2022-08-21T13:28:05;99917.31;;;29.54;43.78
42725;BME280;28369;44.046;23.014;2022-08-21T13:30:37;100123.94;;;30.63;45.32
42725;BME280;28369;44.046;23.014;2022-08-21T13:33:05;99883.75;;;29.09;46.65
42725;BME280;28369;44.046;23.014;2022-08-21T13:38:28;100150.25;;;30.01;49.40